Time;durP1;ratioP1;P1;durP2;ratioP2;P2;SDS_P1;SDS_P2;PMS_P1;PMS_P2;Temp;Humidity;BMP_temperature;BMP_pressure;BME280_temperature;BME280_humidity;BME280_pressure;Samples;Min_cycle;Max_cycle;Signal;HPM_P1;HPM_P2
2021/01/02 00:01:27;;;;;;;23.63;15.75;;;5.00;92.80;;;;;;6084614;23;20030;-86
2021/01/02 00:04:59;;;;;;;27.27;17.25;;;5.00;92.80;;;;;;6154794;23;20013;-86
2021/01/02 00:08:10;;;;;;;;;;;;;;;;;;;;;
2021/01/02 00:11:18;;;;;;;30.17;18.02;;;5.00;92.80;;;;;;6153075;23;20081;-90
2021/01/02 00:14:18;;;;;;;29.38;17.00;;;5.00;92.80;;;;;;6155111;23;20017;-89
2021/01/02 00:17:04;;;;;;;26.83;17.75;;;5.00;92.80;;;;;;6155170;23;20012;-88
2021/01/02 00:19:52;;;;;;;30.83;19.02;;;5.00;92.80;;;;;;6155021;23;20005;-88
2021/01/02 00:22:27;;;;;;;30.60;18.83;;;5.00;92.80;;;;;;6153608;23;20013;-89
2021/01/02 00:25:41;;;;;;;31.00;18.23;;;5.00;92.80;;;;;;6154948;23;19998;-89
2021/01/02 00:28:46;;;;;;;;;;;;;;;;;;;;;
2021/01/02 00:32:09;;;;;;;29.80;19.23;;;5.00;92.80;;;;;;6135903;23;20084;-86
2021/01/02 00:34:52;;;;;;;30.52;19.00;;;5.00;92.80;;;;;;6138979;23;20385;-86
2021/01/02 00:37:50;;;;;;;32.03;19.73;;;5.00;92.80;;;;;;6154334;23;20126;-86
2021/01/02 00:43:16;;;;;;;29.17;18.25;;;5.00;92.80;;;;;;6147359;23;20010;-88
2021/01/02 00:45:52;;;;;;;31.42;19.48;;;5.00;92.80;;;;;;6153956;23;20037;-89
2021/01/02 00:48:59;;;;;;;30.77;20.00;;;5.00;92.80;;;;;;6154268;23;20033;-87
2021/01/02 00:51:28;;;;;;;;;;;;;;;;;;;;;
2021/01/02 00:54:17;;;;;;;30.33;19.83;;;5.00;92.70;;;;;;6155766;23;20088;-88
2021/01/02 00:57:15;;;;;;;31.85;20.38;;;5.00;92.80;;;;;;6154831;23;20005;-89
2021/01/02 01:00:29;;;;;;;;;;;;;;;;;;;;;
2021/01/02 01:03:18;;;;;;;32.45;18.73;;;5.00;92.70;;;;;;6094246;23;20086;-88
2021/01/02 01:06:29;;;;;;;;;;;;;;;;;;;;;
2021/01/02 01:09:07;;;;;;;31.55;20.38;;;5.00;92.70;;;;;;6155672;23;20111;-87
2021/01/02 01:11:47;;;;;;;31.45;20.70;;;4.90;92.70;;;;;;6154895;23;20014;-87
2021/01/02 01:14:22;;;;;;;31.27;20.45;;;4.90;92.70;;;;;;6154229;23;20029;-87
2021/01/02 01:17:19;;;;;;;32.40;19.90;;;4.90;92.70;;;;;;6154676;23;20060;-86
2021/01/02 01:19:57;;;;;;;32.70;20.48;;;4.90;92.70;;;;;;6154602;23;20033;-87
2021/01/02 01:22:45;;;;;;;;;;;;;;;;;;;;;
2021/01/02 01:26:01;;;;;;;;;;;;;;;;;;;;;
2021/01/02 01:31:44;;;;;;;36.15;20.83;;;4.90;92.70;;;;;;6144336;23;20328;-86
2021/01/02 01:34:27;;;;;;;;;;;4.90;92.70;;;;;;6154464;23;20001;-89
2021/01/02 01:37:07;;;;;;;33.50;21.10;;;4.90;92.70;;;;;;6154528;23;19967;-87
2021/01/02 01:39:58;;;;;;;;;;;;;;;;;;;;;
2021/01/02 01:43:11;;;;;;;;;;;;;;;;;;;;;
2021/01/02 01:45:44;;;;;;;32.60;20.90;;;4.90;92.70;;;;;;6154739;23;20092;-87
2021/01/02 01:48:50;;;;;;;;;;;;;;;;;;;;;
2021/01/02 01:51:52;;;;;;;31.27;20.20;;;4.90;92.70;;;;;;6154911;23;20571;-88
2021/01/02 01:55:08;;;;;;;30.75;19.45;;;4.90;92.70;;;;;;6154201;23;20060;-87
2021/01/02 01:58:27;;;;;;;;;;;;;;;;;;;;;
2021/01/02 02:01:05;;;;;;;33.63;20.90;;;4.90;92.70;;;;;;6151777;23;20084;-87
2021/01/02 02:04:12;;;;;;;30.10;19.75;;;4.90;92.70;;;;;;6154263;23;19998;-88
2021/01/02 02:06:59;;;;;;;33.67;21.75;;;4.80;92.70;;;;;;6153877;23;20009;-87
2021/01/02 02:10:18;;;;;;;;;;;;;;;;;;;;;
2021/01/02 02:12:58;;;;;;;30.05;20.88;;;4.80;92.70;;;;;;6153946;23;20104;-87
2021/01/02 02:15:47;;;;;;;31.05;21.02;;;4.90;92.60;;;;;;6153101;23;20468;-88
2021/01/02 02:18:18;;;;;;;36.47;21.20;;;4.80;92.60;;;;;;6153527;23;20005;-87
2021/01/02 02:21:30;;;;;;;32.00;20.20;;;4.80;92.60;;;;;;6152873;23;19998;-88
2021/01/02 02:24:24;;;;;;;35.03;20.95;;;4.90;92.60;;;;;;6153512;23;20006;-87
2021/01/02 02:27:08;;;;;;;32.08;21.42;;;4.80;92.60;;;;;;6152775;23;20001;-87
2021/01/02 02:30:10;;;;;;;31.98;20.92;;;4.80;92.60;;;;;;6152587;23;20008;-88
2021/01/02 02:33:10;;;;;;;30.65;20.30;;;4.80;92.60;;;;;;6139879;23;20306;-87
2021/01/02 02:35:44;;;;;;;31.30;20.88;;;4.80;92.60;;;;;;6146441;23;20792;-88
2021/01/02 02:38:18;;;;;;;29.80;20.00;;;4.80;92.60;;;;;;6153435;23;20456;-88
2021/01/02 02:41:00;;;;;;;32.22;20.73;;;4.80;92.60;;;;;;6153327;23;20090;-87
2021/01/02 02:43:46;;;;;;;;;;;;;;;;;;;;;
2021/01/02 02:46:19;;;;;;;30.70;21.08;;;4.80;92.60;;;;;;6154932;23;20088;-87
2021/01/02 02:48:54;;;;;;;34.00;21.23;;;4.80;92.60;;;;;;6152746;23;20008;-88
2021/01/02 02:51:34;;;;;;;;;;;;;;;;;;;;;
2021/01/02 02:54:25;;;;;;;32.95;20.88;;;4.80;92.60;;;;;;6155287;23;20072;-87
2021/01/02 02:56:57;;;;;;;29.33;20.13;;;4.70;92.50;;;;;;6154143;23;20446;-87
2021/01/02 02:59:31;;;;;;;;;;;4.70;92.50;;;;;;6154950;23;20006;-88
2021/01/02 03:02:17;;;;;;;33.38;19.90;;;4.70;92.50;;;;;;6153883;23;19916;-87
2021/01/02 03:04:50;;;;;;;30.42;20.25;;;4.70;92.50;;;;;;6155271;23;20005;-88
2021/01/02 03:07:30;;;;;;;28.70;19.27;;;4.70;92.50;;;;;;6154718;23;20002;-87
2021/01/02 03:10:02;;;;;;;30.48;20.80;;;4.70;92.50;;;;;;6154269;23;20002;-88
2021/01/02 03:12:40;;;;;;;;;;;;;;;;;;;;;
2021/01/02 03:15:30;;;;;;;34.38;21.08;;;4.70;92.50;;;;;;6154500;23;20085;-87
2021/01/02 03:17:58;;;;;;;29.25;20.17;;;4.70;92.50;;;;;;6153409;23;20033;-87
2021/01/02 03:20:36;;;;;;;;;;;;;;;;;;;;;
2021/01/02 03:23:13;;;;;;;32.10;21.05;;;4.70;92.50;;;;;;6154729;23;20089;-87
2021/01/02 03:25:38;;;;;;;30.95;20.95;;;4.70;92.50;;;;;;6152699;23;20001;-87
2021/01/02 03:28:12;;;;;;;31.80;21.92;;;4.70;92.60;;;;;;6153863;23;20064;-87
2021/01/02 03:30:46;;;;;;;31.08;19.90;;;4.70;92.60;;;;;;6105702;23;20025;-87
2021/01/02 03:33:34;;;;;;;30.65;20.42;;;4.70;92.50;;;;;;6153178;23;20006;-87
2021/01/02 03:39:27;;;;;;;34.38;21.35;;;4.70;92.50;;;;;;6143099;23;20336;-87
2021/01/02 03:42:08;;;;;;;32.42;21.25;;;4.70;92.50;;;;;;6156496;23;20017;-88
2021/01/02 03:44:49;;;;;;;;;;;;;;;;;;;;;
2021/01/02 03:47:20;;;;;;;30.83;21.23;;;4.70;92.50;;;;;;6155282;23;20089;-87
2021/01/02 03:49:56;;;;;;;34.45;22.23;;;4.70;92.50;;;;;;6156046;23;20004;-88
2021/01/02 03:52:36;;;;;;;33.97;21.88;;;4.70;92.50;;;;;;6108137;23;20029;-88
2021/01/02 03:55:07;;;;;;;30.95;21.58;;;4.70;92.50;;;;;;6155394;23;20056;-87
2021/01/02 03:58:05;;;;;;;32.22;20.80;;;4.70;92.50;;;;;;6155510;23;20371;-87
2021/01/02 04:00:43;;;;;;;29.85;20.70;;;4.70;92.50;;;;;;6133393;23;20005;-87
2021/01/02 04:06:14;;;;;;;;;;;;;;;;;;;;;
2021/01/02 04:08:52;;;;;;;;;;;;;;;;;;;;;
2021/01/02 04:11:40;;;;;;;;;;;;;;;;;;;;;
2021/01/02 04:14:17;;;;;;;33.35;21.83;;;4.70;92.40;;;;;;6156622;23;20537;-88
2021/01/02 04:16:44;;;;;;;31.83;22.33;;;4.70;92.40;;;;;;6154697;23;20001;-88
2021/01/02 04:19:32;;;;;;;32.17;22.67;;;4.70;92.40;;;;;;6153137;23;20025;-88
2021/01/02 04:22:16;;;;;;;33.05;22.90;;;4.70;92.40;;;;;;6155260;23;20036;-88
2021/01/02 04:24:56;;;;;;;34.70;23.50;;;4.70;92.40;;;;;;6155700;23;20125;-88
2021/01/02 04:27:41;;;;;;;32.95;23.63;;;4.70;92.40;;;;;;6131442;23;20144;-88
2021/01/02 04:30:18;;;;;;;32.08;22.02;;;4.60;92.30;;;;;;6154343;23;20026;-88
2021/01/02 04:32:49;;;;;;;35.53;23.77;;;4.60;92.30;;;;;;6154895;23;20009;-88
2021/01/02 04:35:22;;;;;;;33.03;21.92;;;4.70;92.30;;;;;;6154975;23;20064;-87
2021/01/02 04:38:04;;;;;;;;;;;;;;;;;;;;;
2021/01/02 04:40:40;;;;;;;36.20;24.30;;;4.70;92.30;;;;;;6155119;23;20495;-92
2021/01/02 04:43:35;;;;;;;36.15;24.73;;;4.60;92.30;;;;;;6130879;23;20097;-87
2021/01/02 04:46:08;;;;;;;34.70;23.38;;;4.60;92.30;;;;;;6153767;23;20013;-88
2021/01/02 04:48:52;;;;;;;;;;;;;;;;;;;;;
2021/01/02 04:51:30;;;;;;;;;;;;;;;;;;;;;
2021/01/02 04:54:06;;;;;;;36.58;24.35;;;4.60;92.30;;;;;;6155928;23;20081;-88
2021/01/02 04:56:58;;;;;;;39.15;25.73;;;4.60;92.30;;;;;;6154177;23;20057;-89
2021/01/02 05:00:07;;;;;;;35.85;24.58;;;4.60;92.30;;;;;;6154829;23;20038;-89
2021/01/02 05:02:39;;;;;;;40.97;26.52;;;4.60;92.30;;;;;;6154508;23;20466;-89
2021/01/02 05:05:09;;;;;;;36.55;24.52;;;4.60;92.20;;;;;;6154378;23;20059;-88
2021/01/02 05:07:50;;;;;;;40.15;25.92;;;4.60;92.20;;;;;;6153408;23;20048;-88
2021/01/02 05:10:21;;;;;;;36.28;25.33;;;4.60;92.30;;;;;;6132017;23;20122;-88
2021/01/02 05:13:12;;;;;;;35.88;24.92;;;4.60;92.20;;;;;;6152942;23;20025;-88
2021/01/02 05:15:39;;;;;;;35.90;24.23;;;4.50;92.20;;;;;;6134669;23;20025;-88
2021/01/02 05:18:12;;;;;;;37.33;25.27;;;4.60;92.20;;;;;;6155288;23;20006;-88
2021/01/02 05:20:41;;;;;;;36.22;25.17;;;4.60;92.20;;;;;;6131251;23;20012;-87
2021/01/02 05:23:36;;;;;;;;;;;;;;;;;;;;;
2021/01/02 05:26:28;;;;;;;35.83;25.00;;;4.50;92.20;;;;;;6155755;23;20080;-88
2021/01/02 05:29:23;;;;;;;39.28;25.85;;;4.50;92.20;;;;;;6145872;23;20044;-87
2021/01/02 05:32:07;;;;;;;36.78;25.05;;;4.50;92.20;;;;;;6153569;23;20006;-88
2021/01/02 05:34:59;;;;;;;36.88;25.30;;;4.50;92.10;;;;;;6153679;23;20030;-87
2021/01/02 05:37:37;;;;;;;36.28;24.52;;;4.50;92.10;;;;;;6153979;23;20012;-85
2021/01/02 05:40:09;;;;;;;39.35;25.23;;;4.50;92.10;;;;;;6106146;23;20029;-87
2021/01/02 05:42:49;;;;;;;36.88;25.77;;;4.40;92.00;;;;;;6153696;23;20041;-86
2021/01/02 05:45:23;;;;;;;33.97;23.58;;;4.40;92.00;;;;;;6153356;23;20032;-87
2021/01/02 05:48:42;;;;;;;;;;;;;;;;;;;;;
2021/01/02 05:51:53;;;;;;;;;;;;;;;;;;;;;
2021/01/02 05:54:37;;;;;;;40.07;25.90;;;4.40;92.00;;;;;;6155415;23;20236;-85
2021/01/02 05:57:15;;;;;;;37.38;24.17;;;4.40;92.00;;;;;;6153428;23;20005;-88
2021/01/02 05:59:52;;;;;;;40.72;26.35;;;4.40;92.00;;;;;;6156666;23;20005;-87
2021/01/02 06:02:20;;;;;;;38.92;25.15;;;4.40;92.00;;;;;;6153685;23;20076;-87
2021/01/02 06:05:22;;;;;;;36.78;25.92;;;4.40;92.00;;;;;;6152916;23;20002;-88
2021/01/02 06:08:08;;;;;;;39.75;25.50;;;4.40;92.00;;;;;;6143810;23;20060;-88
2021/01/02 06:11:05;;;;;;;38.83;26.95;;;4.40;92.00;;;;;;6154875;23;20057;-86
2021/01/02 06:13:41;;;;;;;43.75;27.45;;;4.40;92.00;;;;;;6153683;23;20017;-87
2021/01/02 06:16:18;;;;;;;41.72;26.60;;;4.40;92.00;;;;;;6154086;23;20029;-87
2021/01/02 06:19:04;;;;;;;40.55;25.88;;;4.40;92.00;;;;;;6153642;23;20009;-86
2021/01/02 06:21:40;;;;;;;36.95;25.13;;;4.40;92.20;;;;;;6068811;23;20018;-87
2021/01/02 06:24:09;;;;;;;40.60;26.83;;;4.40;92.00;;;;;;6107188;23;20332;-87
2021/01/02 06:26:39;;;;;;;40.45;26.25;;;4.40;92.00;;;;;;6152813;23;20452;-87
2021/01/02 06:29:19;;;;;;;42.77;26.53;;;4.40;92.00;;;;;;6128692;23;20037;-87
2021/01/02 06:31:50;;;;;;;42.22;26.08;;;4.40;92.00;;;;;;6105272;23;20559;-86
2021/01/02 06:34:29;;;;;;;42.60;27.48;;;4.40;92.00;;;;;;6153920;23;20010;-86
2021/01/02 06:37:05;;;;;;;;;;;;;;;;;;;;;
2021/01/02 06:40:01;;;;;;;42.40;26.50;;;4.40;92.00;;;;;;6155269;23;20077;-87
2021/01/02 06:45:41;;;;;;;41.40;27.20;;;4.40;91.90;;;;;;6139568;23;20013;-88
2021/01/02 06:48:15;;;;;;;43.10;27.63;;;4.40;91.90;;;;;;6152050;23;20490;-87
2021/01/02 06:51:02;;;;;;;44.78;27.98;;;4.40;91.90;;;;;;6155346;23;20002;-87
2021/01/02 06:53:46;;;;;;;42.15;26.98;;;4.40;91.90;;;;;;6153099;23;20005;-87
2021/01/02 06:56:25;;;;;;;42.53;27.85;;;4.30;91.90;;;;;;6154643;23;20009;-87
2021/01/02 06:58:58;;;;;;;40.67;26.63;;;4.30;91.90;;;;;;6108967;23;20001;-87
2021/01/02 07:01:37;;;;;;;;;;;;;;;;;;;;;
2021/01/02 07:04:13;;;;;;;41.55;26.80;;;4.30;91.90;;;;;;6154404;23;20397;-87
2021/01/02 07:07:19;;;;;;;47.90;27.73;;;4.30;91.90;;;;;;6129242;23;20008;-87
2021/01/02 07:09:57;;;;;;;;;;;;;;;;;;;;;
2021/01/02 07:12:44;;;;;;;43.25;28.00;;;4.30;91.90;;;;;;6154967;23;20080;-87
2021/01/02 07:15:35;;;;;;;;;;;;;;;;;;;;;
2021/01/02 07:18:31;;;;;;;45.33;27.83;;;4.30;92.00;;;;;;6156151;23;20072;-87
2021/01/02 07:21:20;;;;;;;45.70;28.58;;;4.30;92.00;;;;;;6156001;23;20305;-87
2021/01/02 07:24:11;;;;;;;48.30;28.80;;;4.30;91.90;;;;;;6153476;23;20001;-86
2021/01/02 07:26:45;;;;;;;47.22;29.67;;;4.30;91.90;;;;;;6155614;23;20014;-87
2021/01/02 07:29:29;;;;;;;47.72;28.75;;;4.30;92.30;;;;;;6154328;23;20025;-87
2021/01/02 07:32:17;;;;;;;48.55;28.85;;;4.30;92.00;;;;;;6155645;23;20083;-87
2021/01/02 07:34:47;;;;;;;49.20;29.25;;;4.30;92.00;;;;;;6155120;23;20011;-88
2021/01/02 07:37:27;;;;;;;;;;;;;;;;;;;;;
2021/01/02 07:40:36;;;;;;;;;;;;;;;;;;;;;
2021/01/02 07:43:12;;;;;;;47.65;29.20;;;4.30;92.00;;;;;;6127111;23;20532;-88
2021/01/02 07:45:43;;;;;;;52.50;30.00;;;4.30;92.00;;;;;;6155087;23;20033;-88
2021/01/02 07:48:25;;;;;;;48.08;29.92;;;4.30;92.00;;;;;;6155281;23;20021;-87
2021/01/02 07:50:59;;;;;;;51.72;29.45;;;4.30;92.00;;;;;;6154313;23;20060;-87
2021/01/02 07:53:43;;;;;;;;;;;;;;;;;;;;;
2021/01/02 07:56:51;;;;;;;54.75;31.27;;;4.30;92.00;;;;;;6154680;23;20101;-87
2021/01/02 07:59:24;;;;;;;54.88;31.13;;;4.30;92.00;;;;;;6155929;23;20044;-87
2021/01/02 08:02:23;;;;;;;56.70;32.60;;;4.30;92.00;;;;;;6157595;23;20037;-88
2021/01/02 08:05:06;;;;;;;54.55;30.75;;;4.30;92.00;;;;;;6161845;23;20400;-87
2021/01/02 08:11:28;;;;;;;50.63;30.42;;;4.30;92.00;;;;;;6095415;23;20433;-89
2021/01/02 08:14:31;;;;;;;56.65;32.58;;;4.30;92.10;;;;;;6131263;23;20104;-90
2021/01/02 08:30:08;;;;;;;;;;;;;;;;;;;;;
2021/01/02 08:33:02;;;;;;;63.23;34.67;;;4.30;92.10;;;;;;6171356;23;20032;-89
2021/01/02 08:35:51;;;;;;;56.97;31.60;;;4.30;92.20;;;;;;6162875;23;20013;-87
2021/01/02 08:38:28;;;;;;;59.55;32.97;;;4.30;92.20;;;;;;6155047;23;19997;-87
2021/01/02 08:41:17;;;;;;;55.13;30.52;;;4.30;92.20;;;;;;6158156;23;20005;-86
2021/01/02 08:44:22;;;;;;;55.88;31.38;;;4.30;92.20;;;;;;6155486;23;20021;-88
2021/01/02 08:46:55;;;;;;;54.00;30.00;;;4.30;92.20;;;;;;6155224;23;20380;-87
2021/01/02 08:49:44;;;;;;;;;;;;;;;;;;;;;
2021/01/02 08:52:34;;;;;;;52.70;30.48;;;4.40;92.20;;;;;;6155172;23;20073;-87
2021/01/02 08:55:13;;;;;;;55.67;31.63;;;4.30;92.20;;;;;;6154549;23;20001;-87
2021/01/02 08:57:53;;;;;;;54.60;30.60;;;4.40;92.20;;;;;;6154503;23;20117;-87
2021/01/02 09:00:43;;;;;;;;;;;;;;;;;;;;;
2021/01/02 09:03:11;;;;;;;56.25;31.95;;;4.40;92.20;;;;;;6156136;23;20076;-87
2021/01/02 09:06:08;;;;;;;;;;;;;;;;;;;;;
2021/01/02 09:08:44;;;;;;;;;;;;;;;;;;;;;
2021/01/02 09:11:12;;;;;;;55.67;31.88;;;4.40;92.20;;;;;;6155391;23;20072;-84
2021/01/02 09:14:05;;;;;;;;;;;;;;;;;;;;;
2021/01/02 09:16:59;;;;;;;56.40;31.83;;;4.40;92.50;;;;;;6152600;23;20644;-87
2021/01/02 09:19:33;;;;;;;56.22;30.85;;;4.40;92.20;;;;;;6157133;23;20068;-87
2021/01/02 09:22:04;;;;;;;52.65;30.27;;;4.50;92.30;;;;;;6139942;23;20348;-87
2021/01/02 09:24:41;;;;;;;56.65;31.05;;;4.40;92.20;;;;;;6154520;23;20005;-86
2021/01/02 09:27:11;;;;;;;55.55;31.50;;;4.50;92.20;;;;;;6153226;23;20009;-85
2021/01/02 09:29:49;;;;;;;;;;;;;;;;;;;;;
2021/01/02 09:32:31;;;;;;;;;;;;;;;;;;;;;
2021/01/02 09:35:10;;;;;;;53.97;30.33;;;4.50;92.30;;;;;;6154823;23;20085;-87
2021/01/02 09:37:38;;;;;;;57.95;30.20;;;4.50;92.30;;;;;;6153960;23;20436;-85
2021/01/02 09:40:38;;;;;;;50.22;28.40;;;4.50;92.30;;;;;;6133242;23;19998;-86
2021/01/02 09:43:58;;;;;;;50.47;28.65;;;4.40;92.50;;;;;;6142882;23;20005;-88
2021/01/02 09:46:34;;;;;;;51.95;29.45;;;4.50;92.30;;;;;;6152403;23;20424;-88
2021/01/02 09:49:19;;;;;;;;;;;;;;;;;;;;;
2021/01/02 09:52:28;;;;;;;51.95;29.02;;;4.50;92.20;;;;;;6151061;23;20100;-89
2021/01/02 09:58:28;;;;;;;54.83;30.50;;;4.50;92.20;;;;;;6111554;23;20005;-88
2021/01/02 10:01:05;;;;;;;52.28;28.05;;;4.50;92.20;;;;;;6127183;23;20064;-88
2021/01/02 10:03:35;;;;;;;56.80;30.27;;;4.50;92.30;;;;;;6150246;23;20009;-89
2021/01/02 10:06:06;;;;;;;55.15;30.85;;;4.60;92.30;;;;;;6127730;23;20081;-89
2021/01/02 10:08:42;;;;;;;54.83;29.58;;;4.50;92.30;;;;;;6101772;23;20092;-89
2021/01/02 10:11:23;;;;;;;50.72;27.17;;;4.50;92.30;;;;;;6126196;23;20452;-88
2021/01/02 10:14:22;;;;;;;;;;;;;;;;;;;;;
2021/01/02 10:17:09;;;;;;;51.53;28.35;;;4.50;92.30;;;;;;6151804;23;20088;-89
2021/01/02 10:19:48;;;;;;;56.13;29.95;;;4.50;92.30;;;;;;6127299;23;20033;-88
2021/01/02 10:22:44;;;;;;;50.80;27.90;;;4.60;92.30;;;;;;6126054;23;20337;-88
2021/01/02 10:28:50;;;;;;;;;;;;;;;;;;;;;
2021/01/02 10:31:37;;;;;;;58.15;28.85;;;4.60;92.30;;;;;;6147287;23;20644;-88
2021/01/02 10:34:28;;;;;;;49.90;28.40;;;4.60;92.30;;;;;;6153434;23;20056;-86
2021/01/02 10:37:06;;;;;;;49.97;28.33;;;4.60;92.30;;;;;;6153358;23;20012;-88
2021/01/02 10:40:10;;;;;;;;;;;;;;;;;;;;;
2021/01/02 10:43:01;;;;;;;49.10;26.95;;;4.60;92.30;;;;;;6154740;23;20086;-90
2021/01/02 10:46:09;;;;;;;;;;;;;;;;;;;;;
2021/01/02 10:52:45;;;;;;;50.85;28.00;;;4.70;92.30;;;;;;6093835;23;20167;-91
2021/01/02 10:55:52;;;;;;;51.65;27.45;;;4.70;92.30;;;;;;6092113;23;20105;-88
2021/01/02 10:59:00;;;;;;;53.67;29.52;;;4.70;92.30;;;;;;6061889;23;20006;-89
2021/01/02 11:05:23;;;;;;;;;;;;;;;;;;;;;
2021/01/02 11:08:39;;;;;;;50.40;28.08;;;4.70;92.30;;;;;;6072183;23;20090;-88
2021/01/02 11:12:04;;;;;;;;;;;;;;;;;;;;;
2021/01/02 11:15:02;;;;;;;;;;;;;;;;;;;;;
2021/01/02 11:21:13;;;;;;;52.47;28.52;;;4.70;92.30;;;;;;6155487;23;20006;-88
2021/01/02 11:27:22;;;;;;;;;;;;;;;;;;;;;
2021/01/02 11:30:41;;;;;;;;;;;;;;;;;;;;;
2021/01/02 11:33:55;;;;;;;;;;;;;;;;;;;;;
2021/01/02 11:37:39;;;;;;;;;;;;;;;;;;;;;
2021/01/02 11:40:39;;;;;;;;;;;;;;;;;;;;;
2021/01/02 11:46:43;;;;;;;45.20;25.23;;;4.80;92.20;;;;;;6126231;23;20009;-90
2021/01/02 11:49:56;;;;;;;;;;;;;;;;;;;;;
2021/01/02 11:52:57;;;;;;;49.58;26.80;;;4.80;92.20;;;;;;6141726;23;20120;-93
2021/01/02 11:56:02;;;;;;;;;;;;;;;;;;;;;
2021/01/02 11:59:35;;;;;;;53.60;27.50;;;4.80;92.20;;;;;;6129824;23;20127;-91
2021/01/02 12:02:31;;;;;;;;;;;;;;;;;;;;;
2021/01/02 12:08:37;;;;;;;;;;;;;;;;;;;;;
2021/01/02 12:15:00;;;;;;;;;;;;;;;;;;;;;
2021/01/02 12:17:57;;;;;;;;;;;;;;;;;;;;;
2021/01/02 12:21:23;;;;;;;;;;;;;;;;;;;;;
2021/01/02 12:31:57;;;;;;;;;;;;;;;;;;;;;
2021/01/02 12:37:38;;;;;;;48.88;25.30;;;4.90;92.20;;;;;;6139501;23;20440;-92
2021/01/02 12:40:36;;;;;;;45.80;24.20;;;4.90;92.10;;;;;;6153825;23;20033;-88
2021/01/02 12:44:05;;;;;;;48.03;25.17;;;4.90;92.20;;;;;;6153285;23;20089;-90
2021/01/02 12:50:53;;;;;;;;;;;;;;;;;;;;;
2021/01/02 12:53:55;;;;;;;48.95;24.33;;;4.90;92.20;;;;;;6131154;23;20088;-87
2021/01/02 12:56:44;;;;;;;;;;;;;;;;;;;;;
2021/01/02 13:00:01;;;;;;;49.70;24.35;;;5.00;92.20;;;;;;6154748;23;20081;-90
2021/01/02 13:06:47;;;;;;;45.60;24.52;;;5.00;92.10;;;;;;6156112;23;20064;-88
2021/01/02 13:10:05;;;;;;;;;;;;;;;;;;;;;
2021/01/02 13:13:19;;;;;;;;;;;;;;;;;;;;;
2021/01/02 13:16:31;;;;;;;;;;;;;;;;;;;;;
2021/01/02 13:19:27;;;;;;;;;;;;;;;;;;;;;
2021/01/02 13:22:44;;;;;;;51.13;26.27;;;5.00;92.20;;;;;;6105947;23;20097;-88
2021/01/02 13:25:54;;;;;;;;;;;;;;;;;;;;;
2021/01/02 13:28:55;;;;;;;;;;;;;;;;;;;;;
2021/01/02 13:32:04;;;;;;;;;;;;;;;;;;;;;
2021/01/02 13:38:30;;;;;;;;;;;;;;;;;;;;;
2021/01/02 13:41:37;;;;;;;51.35;25.02;;;5.00;92.20;;;;;;6010003;23;20082;-90
2021/01/02 13:44:40;;;;;;;50.65;26.30;;;5.00;92.20;;;;;;6075889;23;20418;-89
2021/01/02 13:47:29;;;;;;;49.90;24.88;;;5.00;92.20;;;;;;6070077;23;20019;-88
2021/01/02 13:50:30;;;;;;;;;;;;;;;;;;;;;
2021/01/02 13:53:26;;;;;;;;;;;;;;;;;;;;;
2021/01/02 13:56:35;;;;;;;50.10;25.63;;;5.00;92.30;;;;;;6085535;23;20096;-89
2021/01/02 13:59:28;;;;;;;50.28;25.85;;;5.00;92.20;;;;;;6102664;23;20080;-88
2021/01/02 14:02:40;;;;;;;50.92;26.45;;;5.10;92.30;;;;;;6099367;23;20025;-89
2021/01/02 14:05:37;;;;;;;46.17;25.30;;;5.00;92.30;;;;;;6099754;23;20075;-89
2021/01/02 14:08:18;;;;;;;;;;;;;;;;;;;;;
2021/01/02 14:11:27;;;;;;;;;;;;;;;;;;;;;
2021/01/02 14:27:17;;;;;;;45.75;23.15;;;5.00;92.20;;;;;;6133284;23;20526;-89
2021/01/02 14:30:27;;;;;;;46.92;21.52;;;5.00;92.20;;;;;;6153557;23;20108;-87
2021/01/02 14:33:41;;;;;;;;;;;;;;;;;;;;;
2021/01/02 14:36:02;;;;;;;51.83;25.25;;;5.00;92.20;;;;;;6146277;23;20044;-89
2021/01/02 14:38:33;;;;;;;;;;;5.00;92.20;;;;;;6129441;23;20033;-88
2021/01/02 14:44:14;;;;;;;52.13;24.48;;;5.00;92.20;;;;;;6113321;23;20023;-90
2021/01/02 14:49:54;;;;;;;;;;;5.00;92.20;;;;;;6093879;23;20011;-90
2021/01/02 14:52:45;;;;;;;42.25;21.77;;;5.00;92.20;;;;;;6153178;23;19900;-88
2021/01/02 14:58:44;;;;;;;;;;;;;;;;;;;;;
2021/01/02 15:01:24;;;;;;;41.70;21.83;;;5.00;92.20;;;;;;6155491;23;20398;-89
2021/01/02 15:07:46;;;;;;;;;;;;;;;;;;;;;
2021/01/02 15:10:49;;;;;;;;;;;;;;;;;;;;;
2021/01/02 15:13:51;;;;;;;45.17;23.58;;;5.00;92.30;;;;;;6153728;23;20084;-87
2021/01/02 15:16:22;;;;;;;43.10;21.13;;;5.00;92.30;;;;;;6153203;23;20021;-87
2021/01/02 15:22:35;;;;;;;;;;;;;;;;;;;;;
2021/01/02 15:25:35;;;;;;;41.15;21.65;;;5.00;92.20;;;;;;6149239;23;20093;-89
2021/01/02 15:28:31;;;;;;;40.30;22.00;;;5.00;92.20;;;;;;6153223;23;20080;-87
2021/01/02 15:31:20;;;;;;;41.92;22.15;;;5.00;92.20;;;;;;6126653;23;20002;-88
2021/01/02 15:40:44;;;;;;;;;;;;;;;;;;;;;
2021/01/02 15:51:02;;;;;;;;;;;;;;;;;;;;;
2021/01/02 16:03:30;;;;;;;;;;;;;;;;;;;;;
2021/01/02 16:06:38;;;;;;;;;;;;;;;;;;;;;
2021/01/02 16:13:26;;;;;;;45.47;23.52;;;5.00;92.30;;;;;;6080223;23;20460;-89
2021/01/02 16:19:22;;;;;;;47.30;23.23;;;5.00;92.40;;;;;;6105880;23;20089;-87
2021/01/02 16:21:55;;;;;;;51.25;26.30;;;5.00;92.40;;;;;;6151741;23;20448;-88
2021/01/02 16:24:39;;;;;;;53.80;25.80;;;5.00;92.40;;;;;;6154479;23;20017;-86
2021/01/02 16:27:09;;;;;;;50.42;25.52;;;5.00;92.40;;;;;;6156069;23;20085;-88
2021/01/02 16:29:58;;;;;;;59.15;27.90;;;5.00;92.40;;;;;;6155690;23;20454;-89
2021/01/02 16:32:53;;;;;;;58.25;26.50;;;5.00;92.40;;;;;;6154783;23;20006;-88
2021/01/02 16:35:28;;;;;;;59.90;29.42;;;5.00;92.40;;;;;;6155136;23;20002;-87
2021/01/02 16:38:16;;;;;;;61.85;29.13;;;5.00;92.40;;;;;;6155556;23;20010;-89
2021/01/02 16:40:54;;;;;;;;;;;;;;;;;;;;;
2021/01/02 16:43:27;;;;;;;57.08;27.23;;;5.00;92.40;;;;;;6155456;23;20085;-87
2021/01/02 16:46:03;;;;;;;60.28;28.25;;;5.10;92.40;;;;;;6154511;23;20424;-89
2021/01/02 16:49:03;;;;;;;55.45;27.95;;;5.00;92.40;;;;;;6155241;23;20380;-89
2021/01/02 16:52:06;;;;;;;;;;;;;;;;;;;;;
2021/01/02 16:55:01;;;;;;;60.28;28.65;;;5.00;92.40;;;;;;6155477;23;20084;-88
2021/01/02 16:57:44;;;;;;;55.13;27.48;;;5.10;92.40;;;;;;6154461;23;20428;-88
2021/01/02 17:06:09;;;;;;;;;;;;;;;;;;;;;
2021/01/02 17:09:03;;;;;;;57.35;28.45;;;5.00;92.50;;;;;;6155293;23;20081;-87
2021/01/02 17:11:54;;;;;;;57.45;28.05;;;5.00;92.50;;;;;;6153762;23;20006;-86
2021/01/02 17:14:26;;;;;;;61.88;29.35;;;5.00;92.50;;;;;;6154419;23;20005;-88
2021/01/02 17:17:22;;;;;;;54.70;27.08;;;5.00;92.50;;;;;;6130057;23;20017;-87
2021/01/02 17:20:00;;;;;;;;;;;;;;;;;;;;;
2021/01/02 17:33:17;;;;;;;57.65;27.90;;;5.00;92.50;;;;;;6065564;23;20015;-90
2021/01/02 17:35:54;;;;;;;53.95;26.77;;;5.00;92.50;;;;;;6023262;23;20017;-89
2021/01/02 17:38:52;;;;;;;;;;;;;;;;;;;;;
2021/01/02 17:41:40;;;;;;;;;;;;;;;;;;;;;
2021/01/02 17:44:33;;;;;;;55.80;27.02;;;4.90;92.50;;;;;;6155741;23;20076;-88
2021/01/02 17:47:23;;;;;;;57.13;26.38;;;4.90;92.50;;;;;;6154849;23;20006;-88
2021/01/02 17:53:19;;;;;;;55.05;26.52;;;4.90;92.60;;;;;;6138864;23;20088;-89
2021/01/02 17:56:05;;;;;;;48.72;25.10;;;4.90;92.60;;;;;;6143015;23;20093;-88
2021/01/02 17:58:44;;;;;;;;;;;;;;;;;;;;;
2021/01/02 18:01:22;;;;;;;54.22;26.75;;;4.90;92.60;;;;;;6155874;23;20041;-90
2021/01/02 18:04:32;;;;;;;50.03;25.63;;;4.90;92.60;;;;;;6131760;23;20056;-89
2021/01/02 18:07:20;;;;;;;49.97;24.52;;;4.90;92.60;;;;;;6155141;23;20006;-89
2021/01/02 18:13:09;;;;;;;50.20;25.40;;;4.90;92.60;;;;;;6134393;23;20070;-88
2021/01/02 18:16:37;;;;;;;53.13;26.27;;;4.90;92.60;;;;;;6153226;23;20419;-89
2021/01/02 18:19:33;;;;;;;;;;;;;;;;;;;;;
2021/01/02 18:30:05;;;;;;;;;;;;;;;;;;;;;
2021/01/02 18:32:56;;;;;;;;;;;;;;;;;;;;;
2021/01/02 18:39:20;;;;;;;59.25;28.88;;;4.90;92.60;;;;;;6055957;23;20009;-88
2021/01/02 18:42:28;;;;;;;;;;;;;;;;;;;;;
2021/01/02 18:45:08;;;;;;;56.45;26.90;;;4.90;92.60;;;;;;6094839;23;20121;-89
2021/01/02 18:48:50;;;;;;;57.42;26.80;;;4.90;92.60;;;;;;6101831;23;20432;-89
2021/01/02 18:51:41;;;;;;;58.90;27.20;;;4.90;92.60;;;;;;6149712;23;20001;-89
2021/01/02 18:54:48;;;;;;;;;;;;;;;;;;;;;
2021/01/02 18:57:41;;;;;;;61.22;28.77;;;4.90;92.60;;;;;;6156002;23;20324;-91
2021/01/02 19:03:30;;;;;;;51.40;25.70;;;4.90;92.60;;;;;;6139375;23;20155;-90
2021/01/02 19:06:32;;;;;;;;;;;;;;;;;;;;;
2021/01/02 19:09:28;;;;;;;;;;;;;;;;;;;;;
2021/01/02 19:12:26;;;;;;;;;;;;;;;;;;;;;
2021/01/02 19:15:13;;;;;;;52.13;26.02;;;4.80;92.60;;;;;;6136313;23;20495;-88
2021/01/02 19:18:01;;;;;;;;;;;;;;;;;;;;;
2021/01/02 19:21:01;;;;;;;57.60;27.92;;;4.80;92.70;;;;;;6157613;23;20076;-90
2021/01/02 19:23:42;;;;;;;51.25;25.40;;;4.90;92.70;;;;;;6111151;23;20068;-89
2021/01/02 19:26:39;;;;;;;52.28;25.80;;;4.80;92.70;;;;;;6152283;23;20005;-89
2021/01/02 19:29:16;;;;;;;57.00;27.15;;;4.80;92.70;;;;;;6143193;23;20060;-88
2021/01/02 19:32:01;;;;;;;;;;;;;;;;;;;;;
2021/01/02 19:35:02;;;;;;;;;;;;;;;;;;;;;
2021/01/02 19:37:33;;;;;;;44.33;23.98;;;4.90;92.70;;;;;;6156220;23;20080;-93
2021/01/02 19:46:58;;;;;;;49.85;25.75;;;4.80;92.60;;;;;;6121487;23;20033;-89
2021/01/02 19:49:39;;;;;;;50.38;25.33;;;4.80;92.60;;;;;;6156049;23;20020;-90
2021/01/02 19:55:41;;;;;;;59.10;30.17;;;4.80;92.60;;;;;;6124991;23;20017;-90